Time;durP1;ratioP1;P1;durP2;ratioP2;P2;SDS_P1;SDS_P2;PMS_P1;PMS_P2;Temp;Humidity;BMP_temperature;BMP_pressure;BME280_temperature;BME280_humidity;BME280_pressure;Samples;Min_cycle;Max_cycle;Signal;HPM_P1;HPM_P2
2023/03/18 00:01:23;;;;;;;12.15;8.27;;;;;;;19.80;39.33;100656.59;5045893;28;20025;-72
2023/03/18 00:03:48;;;;;;;9.52;6.97;;;;;;;20.10;39.15;100706.13;5056173;28;20025;-71
2023/03/18 00:06:17;;;;;;;11.88;7.43;;;;;;;20.09;39.44;100704.41;5053964;28;20051;-72
2023/03/18 00:08:44;;;;;;;11.32;8.25;;;;;;;20.07;39.40;100701.91;5054541;28;20021;-71
2023/03/18 00:11:11;;;;;;;12.20;7.78;;;;;;;19.93;39.38;100683.81;5047961;28;20056;-72
2023/03/18 00:13:37;;;;;;;10.63;7.35;;;;;;;20.04;39.50;100690.63;5069757;28;20056;-70
2023/03/18 00:16:04;;;;;;;10.25;6.95;;;;;;;20.05;39.13;100706.66;5069644;28;20034;-70
2023/03/18 00:18:31;;;;;;;9.38;6.57;;;;;;;20.03;39.06;100700.59;5049681;28;20398;-71
2023/03/18 00:20:58;;;;;;;10.27;6.97;;;;;;;19.81;39.36;100677.16;5047122;28;20013;-71
2023/03/18 00:23:25;;;;;;;9.55;6.97;;;;;;;19.84;39.54;100682.22;5051618;28;20493;-71
2023/03/18 00:25:52;;;;;;;8.75;5.97;;;;;;;19.54;39.32;100635.34;5051468;28;20036;-71
2023/03/18 00:28:18;;;;;;;8.98;6.78;;;;;;;19.79;39.12;100680.03;5046422;28;20113;-70
2023/03/18 00:30:43;;;;;;;10.13;6.85;;;;;;;19.99;39.48;100720.88;5046547;28;20049;-70
2023/03/18 00:33:09;;;;;;;10.57;7.43;;;;;;;19.97;39.34;100723.75;5053161;28;20088;-71
2023/03/18 00:35:35;;;;;;;9.18;6.53;;;;;;;19.97;39.12;100725.63;5050020;28;20033;-70
2023/03/18 00:38:02;;;;;;;11.98;6.88;;;;;;;19.96;39.29;100722.09;5068915;28;20568;-71
2023/03/18 00:40:41;;;;;;;10.02;7.00;;;;;;;19.93;39.06;100718.91;5048376;28;20029;-71
2023/03/18 00:43:07;;;;;;;;;;;;;;;19.95;39.51;100723.06;5052489;28;20048;-70
2023/03/18 00:45:36;;;;;;;8.00;6.18;;;;;;;19.94;39.14;100732.19;5047100;28;20000;-70
2023/03/18 00:48:02;;;;;;;;;;;;;;;19.93;39.20;100729.69;5049656;28;20083;-70
2023/03/18 00:50:28;;;;;;;9.15;6.13;;;;;;;19.89;39.19;100741.84;5047166;28;19913;-70
2023/03/18 00:52:53;;;;;;;11.23;7.25;;;;;;;19.90;38.86;100738.13;5052097;28;20067;-72
2023/03/18 00:55:19;;;;;;;11.55;6.55;;;;;;;19.83;39.40;100729.06;5048822;28;20026;-71
2023/03/18 00:57:45;;;;;;;10.85;6.70;;;;;;;19.88;39.32;100742.84;5050648;28;20028;-71
2023/03/18 01:00:10;;;;;;;8.30;5.80;;;;;;;19.86;39.17;100744.91;5064731;28;20075;-71
2023/03/18 01:02:36;;;;;;;9.35;6.45;;;;;;;19.86;39.39;100745.75;5048902;28;20803;-70
2023/03/18 01:05:02;;;;;;;11.48;6.30;;;;;;;19.86;39.62;100747.59;5049879;28;20025;-71
2023/03/18 01:07:27;;;;;;;9.85;6.15;;;;;;;19.75;39.45;100729.13;5048997;28;20044;-71
2023/03/18 01:09:53;;;;;;;10.68;6.80;;;;;;;19.84;39.50;100750.50;5048790;28;20030;-71
2023/03/18 01:12:18;;;;;;;9.55;6.07;;;;;;;19.83;39.36;100746.09;5046947;28;20132;-71
2023/03/18 01:14:44;;;;;;;9.73;6.72;;;;;;;19.83;39.32;100746.09;5051358;28;20501;-71
2023/03/18 01:17:09;;;;;;;9.52;6.00;;;;;;;19.32;39.40;100670.19;5047584;28;20017;-71
2023/03/18 01:19:36;;;;;;;9.35;6.47;;;;;;;19.82;39.30;100744.41;5049165;28;20025;-70
2023/03/18 01:22:02;;;;;;;8.93;6.78;;;;;;;19.81;39.58;100742.75;5045475;28;20026;-72
2023/03/18 01:24:27;;;;;;;8.40;5.60;;;;;;;19.81;39.37;100747.31;5053647;28;20399;-71
2023/03/18 01:26:53;;;;;;;8.98;6.13;;;;;;;19.70;39.34;100735.06;5053293;28;20470;-71
2023/03/18 01:29:19;;;;;;;6.85;5.25;;;;;;;19.80;39.51;100753.72;5051488;28;20041;-71
2023/03/18 01:31:45;;;;;;;7.93;5.53;;;;;;;19.78;39.31;100743.09;5049565;28;20025;-71
2023/03/18 01:34:11;;;;;;;7.70;5.65;;;;;;;19.78;39.21;100747.66;5068421;28;20029;-71
2023/03/18 01:36:36;;;;;;;7.18;5.18;;;;;;;19.74;39.53;100744.47;5046623;28;20044;-70
2023/03/18 01:39:02;;;;;;;8.35;5.80;;;;;;;19.54;39.43;100714.41;5047583;28;20026;-70
2023/03/18 01:41:27;;;;;;;8.70;5.68;;;;;;;19.72;39.49;100744.66;5052891;28;20144;-70
2023/03/18 01:43:54;;;;;;;9.25;5.20;;;;;;;19.76;39.13;100753.25;5054726;28;20026;-70
2023/03/18 01:46:31;;;;;;;9.30;5.78;;;;;;;19.73;39.55;100746.34;5049314;28;20021;-70
2023/03/18 01:48:56;;;;;;;8.10;5.65;;;;;;;19.47;39.26;100699.94;5054270;28;20521;-70
2023/03/18 01:51:23;;;;;;;8.38;5.82;;;;;;;19.73;39.53;100748.19;5055441;28;20029;-71
2023/03/18 01:53:49;;;;;;;7.63;5.78;;;;;;;19.51;39.53;100713.91;5069400;28;20112;-71
2023/03/18 01:56:15;;;;;;;8.57;5.68;;;;;;;19.48;39.64;100704.31;5060883;28;20033;-71
2023/03/18 01:58:43;;;;;;;7.10;5.20;;;;;;;19.70;39.63;100743.97;5061749;28;20122;-71
2023/03/18 02:01:16;;;;;;;7.18;5.07;;;;;;;19.68;39.42;100743.34;5056641;28;20030;-71
2023/03/18 02:03:42;;;;;;;7.32;5.20;;;;;;;19.67;39.48;100744.34;5062589;28;20057;-71
2023/03/18 02:06:08;;;;;;;7.63;5.40;;;;;;;19.67;39.36;100744.34;5051589;28;20055;-71
2023/03/18 02:08:35;;;;;;;7.55;5.18;;;;;;;19.66;39.71;100752.59;5059921;28;20089;-70
2023/03/18 02:11:00;;;;;;;8.25;5.43;;;;;;;19.49;39.61;100725.69;5056240;28;20035;-71
2023/03/18 02:13:26;;;;;;;7.47;4.75;;;;;;;19.65;39.63;100753.63;5052361;28;20033;-71
2023/03/18 02:15:56;;;;;;;8.00;5.55;;;;;;;19.54;39.56;100735.97;5064170;28;20059;-71
2023/03/18 02:18:37;;;;;;;6.88;5.15;;;;;;;19.63;39.84;100753.81;5075075;28;20079;-71
2023/03/18 02:21:15;;;;;;;7.43;5.40;;;;;;;19.62;39.55;100752.13;5054546;28;20084;-70
2023/03/18 02:24:02;;;;;;;6.40;4.72;;;;;;;19.61;39.52;100755.84;5048003;28;20018;-70
2023/03/18 02:26:36;;;;;;;7.45;4.90;;;;;;;19.27;39.52;100701.38;5058558;28;20494;-70
2023/03/18 02:29:03;;;;;;;7.53;5.00;;;;;;;19.42;39.68;100726.59;5072208;28;20025;-72
2023/03/18 02:31:30;;;;;;;6.63;4.85;;;;;;;19.56;39.43;100755.50;5045418;28;20029;-71
2023/03/18 02:33:56;;;;;;;6.97;5.15;;;;;;;19.43;39.35;100734.50;5063921;28;20059;-70
2023/03/18 02:36:26;;;;;;;6.80;4.63;;;;;;;19.57;39.44;100759.88;5056998;28;20044;-73
2023/03/18 02:38:52;;;;;;;5.88;4.57;;;;;;;19.38;39.43;100730.66;5062583;28;20049;-72
2023/03/18 02:41:21;;;;;;;7.03;4.38;;;;;;;19.57;39.64;100761.72;5049416;28;20044;-71
2023/03/18 02:43:47;;;;;;;6.57;5.07;;;;;;;19.57;39.36;100759.03;5049458;28;20048;-70
2023/03/18 02:46:38;;;;;;;6.32;4.50;;;;;;;19.33;39.35;100725.81;5052336;28;20052;-71
2023/03/18 02:49:05;;;;;;;6.75;4.90;;;;;;;19.54;39.45;100757.56;5056878;28;20029;-71
2023/03/18 02:51:30;;;;;;;7.97;4.50;;;;;;;19.53;39.25;100766.63;5054224;28;20033;-71
2023/03/18 02:54:00;;;;;;;6.00;4.25;;;;;;;19.45;39.41;100759.44;5053460;28;20029;-72
2023/03/18 02:56:26;;;;;;;8.68;5.45;;;;;;;19.52;39.46;100766.81;5069712;28;20030;-72
2023/03/18 02:58:51;;;;;;;6.47;4.53;;;;;;;19.51;39.37;100762.44;5049037;28;20029;-72
2023/03/18 03:01:17;;;;;;;6.28;4.28;;;;;;;19.51;39.58;100770.53;5062906;28;20092;-71
2023/03/18 03:03:42;;;;;;;5.97;4.38;;;;;;;19.46;39.67;100768.38;5064256;28;20060;-70
2023/03/18 03:06:08;;;;;;;7.40;5.57;;;;;;;19.48;39.45;100769.03;5053935;28;20049;-71
2023/03/18 03:08:34;;;;;;;6.43;4.63;;;;;;;19.25;39.49;100733.91;5049207;28;20041;-71
2023/03/18 03:10:59;;;;;;;7.60;5.63;;;;;;;19.29;39.43;100740.66;5051523;28;20045;-71
2023/03/18 03:13:25;;;;;;;6.28;4.22;;;;;;;19.47;39.74;100775.44;5046098;28;20025;-71
2023/03/18 03:15:50;;;;;;;5.90;4.72;;;;;;;19.37;39.65;100774.78;5050229;28;20044;-71
2023/03/18 03:18:16;;;;;;;8.05;4.75;;;;;;;19.30;39.63;100755.78;5062013;28;20040;-71
2023/03/18 03:20:42;;;;;;;8.23;4.95;;;;;;;19.17;39.68;100740.19;5054117;28;20024;-70
2023/03/18 03:23:10;;;;;;;6.22;4.68;;;;;;;19.44;39.40;100781.19;5061802;28;20033;-71
2023/03/18 03:25:35;;;;;;;5.97;4.43;;;;;;;19.42;39.53;100781.34;5053192;28;20040;-70
2023/03/18 03:28:02;;;;;;;6.65;4.85;;;;;;;19.34;39.72;100769.78;5055013;28;20108;-71
2023/03/18 03:30:28;;;;;;;5.95;4.40;;;;;;;19.33;39.65;100770.78;5050020;28;20040;-71
2023/03/18 03:32:53;;;;;;;7.60;4.65;;;;;;;19.41;39.57;100781.50;5062221;28;20078;-71
2023/03/18 03:35:19;;;;;;;6.63;4.40;;;;;;;19.41;39.82;100787.78;5055540;28;20033;-71
2023/03/18 03:37:45;;;;;;;5.13;4.00;;;;;;;19.18;39.94;100749.94;5054409;28;20056;-69
2023/03/18 03:40:14;;;;;;;7.63;4.50;;;;;;;19.39;39.84;100783.56;5049238;28;20067;-70
2023/03/18 03:42:39;;;;;;;6.88;5.10;;;;;;;19.39;39.79;100788.94;5062681;28;20039;-69
2023/03/18 03:45:06;;;;;;;6.30;4.10;;;;;;;19.30;39.62;100784.63;5053146;28;20040;-69
2023/03/18 03:47:32;;;;;;;5.80;4.32;;;;;;;19.37;39.43;100796.34;5069508;28;20021;-70
2023/03/18 03:49:57;;;;;;;5.47;4.28;;;;;;;19.23;39.78;100779.91;5061556;28;20051;-71
2023/03/18 03:52:22;;;;;;;7.03;4.82;;;;;;;19.36;39.54;100794.69;5050563;28;20219;-71
2023/03/18 03:54:49;;;;;;;6.00;4.30;;;;;;;19.34;39.58;100800.25;5055317;28;20046;-71
2023/03/18 03:57:15;;;;;;;6.93;4.63;;;;;;;19.29;39.82;100794.56;5053681;28;20025;-70
2023/03/18 03:59:40;;;;;;;7.03;3.90;;;;;;;19.33;39.91;100806.69;5048304;28;20036;-71
2023/03/18 04:02:05;;;;;;;6.63;4.70;;;;;;;19.32;39.74;100809.53;5061741;28;20033;-71
2023/03/18 04:04:31;;;;;;;5.85;4.40;;;;;;;19.27;39.94;100796.56;5057620;28;20029;-71
2023/03/18 04:06:57;;;;;;;6.32;3.97;;;;;;;19.16;39.67;100778.09;5051897;28;20037;-71
2023/03/18 04:09:22;;;;;;;5.43;4.10;;;;;;;19.19;39.74;100789.34;5059100;28;20026;-71
2023/03/18 04:11:51;;;;;;;5.60;4.20;;;;;;;19.29;39.90;100805.34;5057162;28;20065;-71
2023/03/18 04:14:17;;;;;;;6.57;4.05;;;;;;;19.10;39.82;100776.06;5057210;28;20049;-71
2023/03/18 04:16:43;;;;;;;7.15;4.53;;;;;;;19.13;39.79;100786.53;5051619;28;20137;-71
2023/03/18 04:19:09;;;;;;;5.93;3.83;;;;;;;19.27;39.68;100806.50;5048955;28;20068;-71
2023/03/18 04:21:35;;;;;;;5.20;4.20;;;;;;;19.26;39.88;100819.16;5057866;28;20083;-70
2023/03/18 04:24:02;;;;;;;6.10;4.05;;;;;;;19.25;39.91;100822.03;5054865;28;20048;-70
2023/03/18 04:26:28;;;;;;;4.55;3.60;;;;;;;19.12;39.82;100799.16;5051014;28;20059;-71
2023/03/18 04:28:53;;;;;;;7.55;4.63;;;;;;;19.22;39.97;100821.34;5048854;28;20092;-70
2023/03/18 04:31:19;;;;;;;4.82;3.75;;;;;;;19.25;40.00;100819.34;5055276;28;20036;-70
2023/03/18 04:33:44;;;;;;;6.38;4.00;;;;;;;19.23;39.95;100819.50;5052033;28;20025;-70
2023/03/18 04:36:09;;;;;;;6.95;3.83;;;;;;;19.23;40.10;100822.19;5047434;28;20414;-70
2023/03/18 04:38:35;;;;;;;5.45;4.03;;;;;;;19.13;39.78;100810.78;5047895;28;20025;-71
2023/03/18 04:41:00;;;;;;;6.97;4.32;;;;;;;19.15;39.64;100816.81;5056663;28;20029;-71
2023/03/18 04:43:26;;;;;;;6.15;3.85;;;;;;;19.21;40.11;100829.63;5050868;28;20029;-71
2023/03/18 04:45:51;;;;;;;6.05;3.88;;;;;;;18.86;40.00;100774.28;5061046;28;20026;-71
2023/03/18 04:48:17;;;;;;;4.78;4.00;;;;;;;18.94;40.00;100788.56;5046786;28;20104;-70
2023/03/18 04:50:42;;;;;;;6.40;3.88;;;;;;;19.19;40.06;100826.25;5054004;28;20021;-70
2023/03/18 04:53:07;;;;;;;5.03;3.60;;;;;;;19.15;39.82;100825.75;5051089;28;20027;-70
2023/03/18 04:55:33;;;;;;;6.00;4.00;;;;;;;18.82;40.03;100773.81;5049360;28;20077;-71
2023/03/18 04:57:58;;;;;;;5.93;4.18;;;;;;;19.16;39.92;100830.13;5047040;28;20079;-71
2023/03/18 05:00:23;;;;;;;4.30;3.53;;;;;;;19.00;40.12;100800.53;5052620;28;20060;-71
2023/03/18 05:02:49;;;;;;;5.70;3.75;;;;;;;19.15;39.86;100831.13;5047533;28;20033;-70
2023/03/18 05:05:14;;;;;;;4.95;3.53;;;;;;;18.92;39.93;100796.00;5049395;28;20026;-71
2023/03/18 05:07:41;;;;;;;5.05;3.88;;;;;;;19.09;39.98;100820.22;5051158;28;20109;-68
2023/03/18 05:10:07;;;;;;;4.95;3.83;;;;;;;19.13;40.20;100830.47;5049502;28;20032;-70
2023/03/18 05:12:33;;;;;;;5.07;3.55;;;;;;;19.09;39.95;100839.06;5060885;28;20025;-70
2023/03/18 05:14:58;;;;;;;5.80;3.50;;;;;;;19.12;40.01;100839.59;5052641;28;20033;-70
2023/03/18 05:17:24;;;;;;;6.35;4.10;;;;;;;18.99;40.21;100825.81;5048838;28;20048;-71
2023/03/18 05:19:50;;;;;;;5.68;4.13;;;;;;;19.12;40.36;100838.75;5051832;28;20108;-71
2023/03/18 05:22:17;;;;;;;6.10;4.13;;;;;;;18.95;40.02;100817.22;5067514;28;20086;-71
2023/03/18 05:24:44;;;;;;;5.78;3.97;;;;;;;19.10;40.08;100838.06;5053192;28;20021;-70
2023/03/18 05:27:10;;;;;;;4.80;3.35;;;;;;;18.92;40.25;100824.78;5056739;28;20025;-70
2023/03/18 05:29:37;;;;;;;4.35;3.95;;;;;;;18.94;40.18;100820.91;5049237;28;20041;-69
2023/03/18 05:32:05;;;;;;;5.22;3.70;;;;;;;19.07;40.30;100836.53;5054842;28;20028;-71
2023/03/18 05:34:35;;;;;;;5.63;3.85;;;;;;;19.08;40.24;100835.53;5055681;28;20025;-70
2023/03/18 05:37:01;;;;;;;5.13;3.75;;;;;;;19.06;39.88;100837.56;5052945;28;20049;-70
2023/03/18 05:39:26;;;;;;;8.32;3.55;;;;;;;19.07;40.23;100838.41;5050768;28;20028;-70
2023/03/18 05:41:51;;;;;;;4.93;3.85;;;;;;;19.08;40.36;100842.78;5055429;28;20080;-71
2023/03/18 05:44:18;;;;;;;5.07;3.67;;;;;;;19.07;40.38;100844.63;5052282;28;20058;-71
2023/03/18 05:46:43;;;;;;;5.68;3.90;;;;;;;19.08;40.19;100846.31;5055899;28;20022;-70
2023/03/18 05:49:09;;;;;;;5.85;3.22;;;;;;;18.85;40.15;100813.84;5054565;28;20032;-70
2023/03/18 05:51:35;;;;;;;6.70;3.63;;;;;;;19.09;40.54;100845.31;5059105;28;20122;-71
2023/03/18 05:54:00;;;;;;;5.22;3.90;;;;;;;19.05;40.40;100832.34;5049388;28;20022;-70
2023/03/18 05:56:26;;;;;;;5.10;3.63;;;;;;;19.11;40.81;100854.03;5050622;28;20065;-70
2023/03/18 05:58:51;;;;;;;5.63;4.03;;;;;;;19.11;40.25;100864.00;5058256;28;20028;-70
2023/03/18 06:01:18;;;;;;;5.13;3.60;;;;;;;18.99;40.74;100850.06;5054535;28;20051;-69
2023/03/18 06:03:44;;;;;;;5.00;3.42;;;;;;;18.92;40.90;100833.72;5049622;28;20056;-69
2023/03/18 06:06:10;;;;;;;5.80;3.75;;;;;;;18.75;40.88;100809.66;5055469;28;20053;-68
2023/03/18 06:08:35;;;;;;;5.95;4.00;;;;;;;18.83;41.17;100821.28;5055191;28;20610;-68
2023/03/18 06:11:00;;;;;;;4.97;3.50;;;;;;;19.13;41.28;100873.59;5053207;28;20498;-69
2023/03/18 06:13:26;;;;;;;6.18;3.47;;;;;;;19.06;41.08;100853.72;5049482;28;20037;-68
2023/03/18 06:15:59;;;;;;;5.47;3.50;;;;;;;18.80;41.45;100816.22;5058586;28;20033;-67
2023/03/18 06:18:25;;;;;;;4.90;3.60;;;;;;;19.14;41.09;100874.44;5058343;28;20032;-69
2023/03/18 06:20:50;;;;;;;4.03;3.42;;;;;;;19.14;41.50;100875.28;5053288;28;20032;-69
2023/03/18 06:23:16;;;;;;;5.82;3.20;;;;;;;18.78;41.69;100829.03;5050076;28;20029;-71
2023/03/18 06:25:42;;;;;;;4.70;3.45;;;;;;;19.09;41.69;100890.28;5062798;28;20040;-70
2023/03/18 06:28:07;;;;;;;5.18;3.55;;;;;;;19.15;41.55;100881.50;5056894;28;20076;-70
2023/03/18 06:30:33;;;;;;;5.43;3.70;;;;;;;19.15;41.75;100886.88;5051943;28;20037;-69
2023/03/18 06:32:59;;;;;;;3.83;3.13;;;;;;;18.89;41.81;100858.28;5066229;28;20021;-71
2023/03/18 06:35:26;;;;;;;5.15;3.50;;;;;;;19.16;41.85;100907.47;5073375;28;20044;-71
2023/03/18 06:37:52;;;;;;;5.22;3.40;;;;;;;18.80;41.79;100855.78;5055548;28;20025;-71
2023/03/18 06:40:18;;;;;;;6.00;3.58;;;;;;;18.97;41.92;100882.53;5049091;28;20487;-70
2023/03/18 06:42:44;;;;;;;4.35;3.22;;;;;;;18.84;42.14;100871.44;5051150;28;20085;-70
2023/03/18 06:45:10;;;;;;;4.00;3.28;;;;;;;19.17;42.11;100926.16;5056329;28;20117;-70
2023/03/18 06:47:35;;;;;;;5.25;3.53;;;;;;;18.94;42.25;100890.94;5053693;28;20025;-70
2023/03/18 06:50:00;;;;;;;4.97;3.72;;;;;;;18.96;42.08;100901.56;5051225;28;20140;-68
2023/03/18 06:52:27;;;;;;;3.90;2.90;;;;;;;19.17;42.23;100931.53;5048900;28;20033;-69
2023/03/18 06:54:52;;;;;;;5.75;3.08;;;;;;;19.10;42.14;100927.00;5070149;28;20021;-70
2023/03/18 06:57:19;;;;;;;4.75;3.25;;;;;;;18.96;42.23;100897.03;5051253;28;20044;-70
2023/03/18 06:59:45;;;;;;;5.80;3.58;;;;;;;19.14;42.11;100926.47;5063581;28;20389;-70
2023/03/18 07:02:11;;;;;;;5.40;3.53;;;;;;;19.15;42.05;100927.31;5047453;28;20036;-70
2023/03/18 07:04:36;;;;;;;5.60;3.10;;;;;;;18.68;42.44;100850.69;5054191;28;20028;-70
2023/03/18 07:07:03;;;;;;;5.90;3.90;;;;;;;19.21;41.96;100932.88;5049240;28;20072;-70
2023/03/18 07:09:30;;;;;;;4.95;3.28;;;;;;;19.22;42.17;100939.13;5051001;28;20092;-70
2023/03/18 07:11:55;;;;;;;8.00;3.40;;;;;;;19.24;42.09;100934.38;5048634;28;20108;-69
2023/03/18 07:14:21;;;;;;;3.97;2.88;;;;;;;19.26;41.82;100934.22;5052318;28;20032;-70
2023/03/18 07:16:47;;;;;;;6.13;3.65;;;;;;;18.95;41.93;100884.56;5061665;28;20032;-70
2023/03/18 07:19:12;;;;;;;5.20;3.35;;;;;;;19.21;41.98;100922.09;5051220;28;20086;-69
2023/03/18 07:21:39;;;;;;;5.00;3.10;;;;;;;19.12;42.16;100909.66;5049854;28;20564;-70
2023/03/18 07:24:05;;;;;;;4.38;3.50;;;;;;;19.09;42.05;100912.69;5050401;28;20021;-71
2023/03/18 07:26:30;;;;;;;4.30;2.97;;;;;;;19.31;41.98;100950.72;5051582;28;20192;-69
2023/03/18 07:28:56;;;;;;;5.05;3.60;;;;;;;19.32;41.99;100950.53;5065260;28;20823;-70
2023/03/18 07:31:21;;;;;;;4.32;3.10;;;;;;;19.32;42.26;100955.94;5050109;28;20114;-73
2023/03/18 07:33:47;;;;;;;5.38;3.58;;;;;;;19.28;42.24;100946.50;5050985;28;20063;-72
2023/03/18 07:36:14;;;;;;;4.45;3.15;;;;;;;19.35;42.14;100961.00;5055562;28;20035;-73
2023/03/18 07:38:39;;;;;;;5.00;3.00;;;;;;;19.18;41.86;100929.69;5064347;28;20029;-73
2023/03/18 07:41:05;;;;;;;4.88;3.15;;;;;;;19.33;41.86;100941.47;5060664;28;20029;-73
2023/03/18 07:43:30;;;;;;;4.45;3.22;;;;;;;19.17;41.62;100922.63;5047272;28;20080;-72
2023/03/18 07:45:55;;;;;;;7.00;3.60;;;;;;;19.30;41.43;100935.56;5054576;28;20108;-73
2023/03/18 07:48:20;;;;;;;3.97;2.72;;;;;;;19.44;41.70;100961.81;5064232;28;20531;-71
2023/03/18 07:50:46;;;;;;;3.67;2.88;;;;;;;19.25;41.41;100928.00;5057358;28;20156;-72
2023/03/18 07:53:11;;;;;;;4.53;2.70;;;;;;;19.47;41.53;100970.41;5051703;28;20017;-72
2023/03/18 07:55:36;;;;;;;3.88;2.60;;;;;;;19.49;41.51;100971.06;5052626;28;20052;-72
2023/03/18 07:58:03;;;;;;;4.43;2.90;;;;;;;19.37;41.18;100955.44;5063695;28;20163;-73
2023/03/18 08:00:29;;;;;;;3.38;2.55;;;;;;;19.52;41.32;100963.69;5049282;28;20030;-72
2023/03/18 08:02:55;;;;;;;4.55;3.08;;;;;;;19.31;41.08;100938.09;5059245;28;20025;-73
2023/03/18 08:05:20;;;;;;;5.15;2.80;;;;;;;19.35;41.21;100943.97;5051986;28;20176;-73
2023/03/18 08:07:47;;;;;;;4.00;3.03;;;;;;;19.56;41.04;100973.13;5048903;28;20042;-73
2023/03/18 08:10:13;;;;;;;4.38;3.70;;;;;;;19.56;41.14;100960.47;5050286;28;20040;-73
2023/03/18 08:12:39;;;;;;;3.88;2.67;;;;;;;19.28;41.24;100924.09;5043427;28;20112;-72
2023/03/18 08:15:06;;;;;;;4.45;2.92;;;;;;;19.26;40.73;100910.81;5050963;28;20065;-72
2023/03/18 08:17:31;;;;;;;6.32;2.95;;;;;;;19.61;40.88;100968.06;5047144;28;20036;-72
2023/03/18 08:19:57;;;;;;;3.33;2.55;;;;;;;19.26;41.09;100921.59;5059014;28;20025;-72
2023/03/18 08:22:24;;;;;;;4.55;2.90;;;;;;;19.62;41.04;100972.44;5056309;28;20060;-73
2023/03/18 08:24:49;;;;;;;5.55;3.00;;;;;;;19.47;41.13;100945.31;5050838;28;20029;-74
2023/03/18 08:27:14;;;;;;;3.42;2.50;;;;;;;19.45;40.95;100948.19;5046107;28;20113;-74
2023/03/18 08:29:40;;;;;;;4.25;2.45;;;;;;;19.66;41.03;100981.88;5058590;28;20030;-74
2023/03/18 08:32:06;;;;;;;3.95;2.90;;;;;;;19.66;40.67;100985.41;5054176;28;20025;-76
2023/03/18 08:34:31;;;;;;;4.97;2.88;;;;;;;19.29;40.84;100928.50;5052230;28;20048;-73
2023/03/18 08:36:58;;;;;;;4.35;2.60;;;;;;;19.62;40.88;100984.06;5048813;28;20037;-72
2023/03/18 08:39:23;;;;;;;3.97;2.70;;;;;;;19.72;40.79;101000.94;5056730;28;20044;-75
2023/03/18 08:41:48;;;;;;;3.85;3.08;;;;;;;19.15;40.88;100903.06;5041985;28;20025;-75
2023/03/18 08:44:14;;;;;;;3.40;2.70;;;;;;;19.58;40.81;100976.47;5048027;28;20089;-73
2023/03/18 08:46:39;;;;;;;4.95;2.50;;;;;;;19.52;40.77;100960.97;5047767;28;20097;-74
2023/03/18 08:49:09;;;;;;;4.63;2.90;;;;;;;19.47;41.01;100948.84;5070870;28;20025;-74
2023/03/18 08:51:34;;;;;;;4.10;2.88;;;;;;;19.83;40.88;101006.97;5051418;28;20074;-74
2023/03/18 08:53:59;;;;;;;3.85;2.50;;;;;;;19.43;40.69;100942.13;5047366;28;20057;-73
2023/03/18 08:56:25;;;;;;;4.38;2.90;;;;;;;19.65;40.78;100991.00;5032968;28;20025;-74
2023/03/18 08:58:50;;;;;;;4.32;2.70;;;;;;;19.79;40.63;100998.38;5055238;28;20088;-74
2023/03/18 09:01:16;;;;;;;4.00;2.60;;;;;;;19.85;41.01;101011.19;5053231;28;20027;-74
2023/03/18 09:03:42;;;;;;;4.70;2.58;;;;;;;19.86;41.01;101012.03;5063744;28;20555;-74
2023/03/18 09:06:08;;;;;;;3.58;2.55;;;;;;;19.71;40.84;100991.16;5046484;28;20054;-74
2023/03/18 09:08:34;;;;;;;4.07;2.85;;;;;;;19.65;40.83;100988.28;5053293;28;20026;-74
2023/03/18 09:10:59;;;;;;;4.88;2.90;;;;;;;19.79;40.76;101014.56;5047921;28;20104;-73
2023/03/18 09:13:24;;;;;;;5.50;2.72;;;;;;;19.80;40.88;101010.88;5047876;28;20060;-74
2023/03/18 09:15:50;;;;;;;5.18;2.42;;;;;;;19.79;40.91;101006.47;5051617;28;20029;-73
2023/03/18 09:18:17;;;;;;;3.45;2.60;;;;;;;19.62;40.73;100980.53;5041325;28;20025;-75
2023/03/18 09:20:44;;;;;;;4.65;2.30;;;;;;;19.52;40.42;100963.69;5049007;28;20533;-75
2023/03/18 09:23:11;;;;;;;2.83;2.35;;;;;;;19.89;40.42;101023.31;5051779;28;20021;-73
2023/03/18 09:25:36;;;;;;;4.50;2.92;;;;;;;19.90;40.79;101021.47;5049765;28;20021;-73
2023/03/18 09:28:01;;;;;;;3.15;2.25;;;;;;;19.92;40.44;101024.81;5034961;28;20033;-74
2023/03/18 09:30:28;;;;;;;3.67;2.47;;;;;;;19.48;40.50;100965.88;5052491;28;20033;-74
2023/03/18 09:32:55;;;;;;;3.28;2.40;;;;;;;19.92;40.61;101025.69;5049602;28;20031;-73
2023/03/18 09:35:21;;;;;;;3.22;2.00;;;;;;;19.76;40.30;101003.28;5068237;28;20017;-75
2023/03/18 09:37:46;;;;;;;4.50;2.53;;;;;;;19.77;40.55;101005.81;5048219;28;20032;-74
2023/03/18 09:40:21;;;;;;;4.10;3.17;;;;;;;19.87;40.37;101011.00;5050725;28;20112;-75
2023/03/18 09:42:49;;;;;;;3.40;2.40;;;;;;;19.93;40.60;101021.97;5051914;28;20056;-74
2023/03/18 09:45:30;;;;;;;3.65;2.00;;;;;;;19.35;40.19;100931.34;5049148;28;20032;-75
2023/03/18 09:48:07;;;;;;;3.42;2.50;;;;;;;19.97;40.40;101017.06;5063641;28;20021;-74
2023/03/18 09:50:42;;;;;;;4.57;2.65;;;;;;;19.64;40.60;100970.44;5052701;28;20044;-74
2023/03/18 09:53:28;;;;;;;3.30;2.53;;;;;;;20.01;40.59;101026.50;5055001;28;20025;-74
2023/03/18 09:56:00;;;;;;;3.58;2.80;;;;;;;20.03;40.33;101013.66;5060463;28;20435;-74
2023/03/18 09:59:23;;;;;;;3.60;2.20;;;;;;;20.04;40.68;101026.13;5070024;28;20025;-74
2023/03/18 10:01:53;;;;;;;3.78;2.40;;;;;;;19.86;40.71;100999.38;5008666;28;20057;-75
2023/03/18 10:04:24;;;;;;;4.18;2.55;;;;;;;19.90;40.34;101008.81;4996238;28;20026;-74
2023/03/18 10:06:53;;;;;;;3.63;2.30;;;;;;;19.87;40.51;101003.75;4999088;28;20057;-74
2023/03/18 10:09:34;;;;;;;3.40;2.53;;;;;;;20.07;40.52;101028.50;5022481;28;20045;-73
2023/03/18 10:12:06;;;;;;;3.40;2.15;;;;;;;19.86;40.52;100998.53;5000085;28;20547;-73
2023/03/18 10:14:41;;;;;;;3.42;2.17;;;;;;;19.83;40.42;100993.47;4997904;28;20026;-73
2023/03/18 10:17:15;;;;;;;4.18;2.58;;;;;;;20.11;40.35;101037.94;4987965;28;20033;-74
2023/03/18 10:19:46;;;;;;;3.78;2.35;;;;;;;20.12;40.29;101036.91;5005287;28;20040;-74
2023/03/18 10:22:18;;;;;;;3.80;2.53;;;;;;;20.13;40.18;101030.47;5004273;28;20036;-74
2023/03/18 10:25:10;;;;;;;2.85;2.58;;;;;;;19.86;40.55;100980.47;5015224;28;20192;-73
2023/03/18 10:27:51;;;;;;;2.65;2.42;;;;;;;20.16;40.53;101032.00;5013104;28;20512;-73
2023/03/18 10:30:34;;;;;;;4.20;2.50;;;;;;;20.18;40.42;101035.38;5011797;28;20416;-73
2023/03/18 10:33:10;;;;;;;2.85;1.90;;;;;;;20.21;40.20;101032.31;5049962;28;20068;-73
2023/03/18 10:35:48;;;;;;;2.83;2.13;;;;;;;20.13;40.64;101021.56;5059703;28;20033;-72
2023/03/18 10:38:17;;;;;;;2.30;1.88;;;;;;;20.27;40.25;101034.34;5052588;28;20037;-73
2023/03/18 10:40:45;;;;;;;3.20;2.05;;;;;;;20.09;40.36;101006.72;5048210;28;20033;-73
2023/03/18 10:43:24;;;;;;;3.78;2.30;;;;;;;20.32;40.01;101031.94;5042501;28;20056;-75
2023/03/18 10:45:57;;;;;;;;;;;;;;;20.38;40.12;101041.19;5055017;28;20084;-73
2023/03/18 10:48:23;;;;;;;4.55;2.20;;;;;;;20.40;40.27;101036.47;5060105;28;19909;-74
2023/03/18 10:51:08;;;;;;;2.65;2.05;;;;;;;20.42;40.05;101042.53;5051339;28;20143;-73
2023/03/18 10:53:45;;;;;;;1.83;1.63;;;;;;;20.44;40.34;101041.34;5044624;28;20037;-74
2023/03/18 10:56:12;;;;;;;3.05;2.03;;;;;;;20.43;40.09;101028.00;5059883;28;20044;-73
2023/03/18 10:58:38;;;;;;;3.00;1.60;;;;;;;20.36;40.21;101011.69;5049898;28;20160;-74
2023/03/18 11:01:10;;;;;;;2.72;1.63;;;;;;;20.24;40.01;100991.47;5056360;28;20012;-73
2023/03/18 11:03:46;;;;;;;2.50;1.55;;;;;;;20.57;39.88;101029.19;5056521;28;20039;-72
2023/03/18 11:06:43;;;;;;;2.03;1.60;;;;;;;20.59;40.09;101027.13;5066044;28;20045;-73
2023/03/18 11:09:17;;;;;;;1.63;1.52;;;;;;;20.56;39.88;101019.38;5050731;28;20045;-73
2023/03/18 11:11:44;;;;;;;3.47;1.75;;;;;;;20.62;40.15;101035.72;5068953;28;20060;-75
2023/03/18 11:14:21;;;;;;;1.80;1.55;;;;;;;20.33;40.27;100976.94;5055725;28;20055;-75
2023/03/18 11:17:01;;;;;;;1.98;1.42;;;;;;;20.61;39.80;101014.31;5062791;28;20033;-75
2023/03/18 11:19:47;;;;;;;1.30;1.15;;;;;;;20.74;39.77;101025.38;5033729;28;20112;-76
2023/03/18 11:22:23;;;;;;;2.10;1.60;;;;;;;20.52;39.68;100991.03;5061455;28;20033;-75
2023/03/18 11:25:16;;;;;;;2.45;1.40;;;;;;;20.78;39.72;101020.47;5065399;28;20466;-76
2023/03/18 11:27:45;;;;;;;1.60;1.40;;;;;;;20.78;39.99;101021.28;5046267;28;20045;-75